createdAt,value
2022-12-24T00:01:06.716Z,99343.47
2022-12-24T00:03:35.104Z,99342.63
2022-12-24T00:06:07.827Z,99346.81
2022-12-24T00:08:35.320Z,99343.63
2022-12-24T00:11:02.564Z,99347.19
2022-12-24T00:13:29.352Z,99354.91
2022-12-24T00:15:56.321Z,99351.88
2022-12-24T00:18:23.155Z,99358.25
2022-12-24T00:20:50.878Z,99353.88
2022-12-24T00:23:18.592Z,99352.22
2022-12-24T00:25:45.761Z,99347.69
2022-12-24T00:28:13.667Z,99346.53
2022-12-24T00:30:43.111Z,99342.47
2022-12-24T00:33:10.728Z,99345.31
2022-12-24T00:35:39.373Z,99350.69
2022-12-24T00:38:08.058Z,99348.22
2022-12-24T00:40:35.314Z,99359.47
2022-12-24T00:43:02.099Z,99356.94
2022-12-24T00:45:28.872Z,99362.31
2022-12-24T00:47:55.868Z,99358.09
2022-12-24T00:50:22.688Z,99361.00
2022-12-24T00:52:49.452Z,99372.06
2022-12-24T00:55:16.673Z,99373.25
2022-12-24T00:57:43.480Z,99380.47
2022-12-24T01:00:11.021Z,99394.94
2022-12-24T01:02:38.119Z,99384.84
2022-12-24T01:05:11.632Z,99391.56
2022-12-24T01:07:44.528Z,99396.75
2022-12-24T01:10:15.147Z,99409.72
2022-12-24T01:12:42.992Z,99418.09
2022-12-24T01:15:11.819Z,99418.09
2022-12-24T01:17:39.597Z,99421.78
2022-12-24T01:20:09.899Z,99419.28
2022-12-24T01:22:36.850Z,99431.69
2022-12-24T01:25:03.924Z,99421.78
2022-12-24T01:27:31.283Z,99433.19
2022-12-24T01:29:58.057Z,99423.31
2022-12-24T01:32:24.918Z,99425.13
2022-12-24T01:34:51.685Z,99423.97
2022-12-24T01:37:18.485Z,99418.78
2022-12-24T01:39:45.286Z,99425.66
2022-12-24T01:42:38.523Z,99430.19
2022-12-24T01:45:42.935Z,99429.00
2022-12-24T01:48:45.952Z,99427.69
2022-12-24T01:51:24.939Z,99432.03
2022-12-24T01:54:01.411Z,99429.50
2022-12-24T01:56:31.555Z,99423.28
2022-12-24T01:59:07.063Z,99421.97
2022-12-24T02:01:34.737Z,99431.53
2022-12-24T02:04:12.815Z,99427.84
2022-12-24T02:06:39.591Z,99438.25
2022-12-24T02:09:07.468Z,99429.88
2022-12-24T02:11:37.286Z,99438.25
2022-12-24T02:14:04.591Z,99436.56
2022-12-24T02:17:15.699Z,99432.22
2022-12-24T02:20:46.886Z,99441.59
2022-12-24T02:23:19.842Z,99443.13
2022-12-24T02:26:14.622Z,99448.34
2022-12-24T02:29:11.733Z,99451.03
2022-12-24T02:31:46.531Z,99452.84
2022-12-24T02:34:33.993Z,99448.66
2022-12-24T02:37:17.597Z,99452.19
2022-12-24T02:40:21.030Z,99450.84
2022-12-24T02:43:08.804Z,99466.44
2022-12-24T02:45:36.679Z,99464.09
2022-12-24T02:48:03.964Z,99465.59
2022-12-24T02:50:30.781Z,99479.19
2022-12-24T02:52:57.654Z,99484.88
2022-12-24T02:55:34.725Z,99478.00
2022-12-24T02:58:42.295Z,99473.63
2022-12-24T03:01:39.565Z,99487.19
2022-12-24T03:04:41.812Z,99471.75
2022-12-24T03:07:30.240Z,99480.16
2022-12-24T03:10:12.541Z,99483.16
2022-12-24T03:12:45.729Z,99491.69
2022-12-24T03:15:17.035Z,99490.69
2022-12-24T03:17:48.212Z,99494.19
2022-12-24T03:20:21.989Z,99509.47
2022-12-24T03:22:49.140Z,99506.63
2022-12-24T03:25:17.226Z,99504.94
2022-12-24T03:27:44.977Z,99512.00
2022-12-24T03:30:14.652Z,99517.22
2022-12-24T03:32:42.014Z,99510.00
2022-12-24T03:35:10.137Z,99526.41
2022-12-24T03:37:37.172Z,99530.94
2022-12-24T03:40:06.402Z,99534.81
2022-12-24T03:42:33.321Z,99551.38
2022-12-24T03:45:00.198Z,99546.16
2022-12-24T03:47:27.023Z,99538.44
2022-12-24T03:49:53.884Z,99553.00
2022-12-24T03:52:21.006Z,99553.50
2022-12-24T03:54:47.981Z,99566.69
2022-12-24T03:57:14.842Z,99563.84
2022-12-24T03:59:41.776Z,99564.47
2022-12-24T04:02:08.849Z,99578.69
2022-12-24T04:04:37.879Z,99570.25
2022-12-24T04:07:06.249Z,99573.56
2022-12-24T04:09:33.515Z,99578.03
2022-12-24T04:12:00.408Z,99578.31
2022-12-24T04:14:27.237Z,99578.97
2022-12-24T04:16:54.224Z,99578.56
2022-12-24T04:19:21.160Z,99582.72
2022-12-24T04:21:47.979Z,99591.22
2022-12-24T04:24:14.802Z,99602.25
2022-12-24T04:26:41.691Z,99606.25
2022-12-24T04:29:08.740Z,99608.22
2022-12-24T04:31:35.645Z,99611.06
2022-12-24T04:34:02.537Z,99607.69
2022-12-24T04:36:29.941Z,99606.88
2022-12-24T04:38:56.773Z,99616.75
2022-12-24T04:41:25.309Z,99613.06
2022-12-24T04:43:54.816Z,99603.03
2022-12-24T04:46:25.646Z,99602.88
2022-12-24T04:48:54.612Z,99614.28
2022-12-24T04:51:22.116Z,99609.59
2022-12-24T04:53:49.819Z,99607.63
2022-12-24T04:56:24.408Z,99611.84
2022-12-24T04:58:52.181Z,99617.19
2022-12-24T05:01:25.730Z,99620.88
2022-12-24T05:03:53.193Z,99612.97
2022-12-24T05:06:26.445Z,99627.91
2022-12-24T05:08:58.089Z,99625.38
2022-12-24T05:11:25.578Z,99628.75
2022-12-24T05:13:52.717Z,99630.44
2022-12-24T05:16:22.249Z,99633.97
2022-12-24T05:18:49.183Z,99647.03
2022-12-24T05:21:19.926Z,99652.25
2022-12-24T05:24:05.683Z,99645.06
2022-12-24T05:26:39.948Z,99656.94
2022-12-24T05:29:09.233Z,99651.28
2022-12-24T05:31:36.411Z,99660.69
2022-12-24T05:34:04.008Z,99666.72
2022-12-24T05:36:31.090Z,99677.16
2022-12-24T05:38:58.246Z,99671.63
2022-12-24T05:41:25.724Z,99671.13
2022-12-24T05:43:52.639Z,99671.81
2022-12-24T05:46:22.028Z,99669.81
2022-12-24T05:48:50.526Z,99670.94
2022-12-24T05:51:20.010Z,99684.34
2022-12-24T05:53:47.998Z,99685.34
2022-12-24T05:56:19.380Z,99689.88
2022-12-24T05:58:46.613Z,99692.72
2022-12-24T06:01:14.462Z,99689.88
2022-12-24T06:03:41.951Z,99696.63
2022-12-24T06:06:13.854Z,99685.56
2022-12-24T06:08:42.454Z,99688.78
2022-12-24T06:11:14.287Z,99690.34
2022-12-24T06:13:42.694Z,99682.97
2022-12-24T06:16:17.323Z,99675.91
2022-12-24T06:18:44.847Z,99686.78
2022-12-24T06:21:12.541Z,99688.94
2022-12-24T06:23:42.736Z,99690.09
2022-12-24T06:26:13.818Z,99691.25
2022-12-24T06:28:41.231Z,99699.28
2022-12-24T06:31:14.423Z,99704.94
2022-12-24T06:33:41.654Z,99703.09
2022-12-24T06:36:18.774Z,99705.97
2022-12-24T06:38:47.449Z,99704.66
2022-12-24T06:41:15.343Z,99704.66
2022-12-24T06:43:48.088Z,99700.28
2022-12-24T06:46:16.061Z,99702.81
2022-12-24T06:48:45.621Z,99702.81
2022-12-24T06:51:13.571Z,99704.50
2022-12-24T06:53:41.299Z,99709.16
2022-12-24T06:56:12.130Z,99711.84
2022-12-24T06:58:41.156Z,99714.69
2022-12-24T07:01:14.565Z,99726.09
2022-12-24T07:03:42.601Z,99730.94
2022-12-24T07:06:30.293Z,99735.59
2022-12-24T07:08:57.588Z,99730.09
2022-12-24T07:11:26.041Z,99730.25
2022-12-24T07:13:53.096Z,99728.84
2022-12-24T07:16:20.333Z,99735.19
2022-12-24T07:18:48.206Z,99736.19
2022-12-24T07:21:15.159Z,99730.31
2022-12-24T07:23:42.023Z,99721.59
2022-12-24T07:26:09.142Z,99727.91
2022-12-24T07:28:36.154Z,99729.91
2022-12-24T07:31:03.567Z,99732.88
2022-12-24T07:33:30.698Z,99735.00
2022-12-24T07:36:07.917Z,99726.97
2022-12-24T07:38:35.485Z,99728.81
2022-12-24T07:41:02.636Z,99722.78
2022-12-24T07:43:29.503Z,99738.00
2022-12-24T07:45:58.141Z,99747.03
2022-12-24T07:48:27.994Z,99733.78
2022-12-24T07:50:57.237Z,99737.31
2022-12-24T07:53:25.580Z,99739.81
2022-12-24T07:55:52.709Z,99743.38
2022-12-24T07:58:20.195Z,99751.41
2022-12-24T08:00:47.003Z,99745.03
2022-12-24T08:03:21.519Z,99737.16
2022-12-24T08:05:49.311Z,99742.81
2022-12-24T08:08:16.165Z,99741.66
2022-12-24T08:10:44.402Z,99735.34
2022-12-24T08:13:11.256Z,99738.56
2022-12-24T08:15:38.177Z,99756.31
2022-12-24T08:18:05.223Z,99760.97
2022-12-24T08:20:31.982Z,99758.00
2022-12-24T08:22:58.774Z,99764.06
2022-12-24T08:25:25.614Z,99757.53
2022-12-24T08:27:52.445Z,99771.50
2022-12-24T08:30:21.580Z,99773.19
2022-12-24T08:32:48.976Z,99775.69
2022-12-24T08:35:15.964Z,99787.13
2022-12-24T08:37:42.894Z,99785.44
2022-12-24T08:40:10.787Z,99801.38
2022-12-24T08:42:37.651Z,99799.25
2022-12-24T08:45:05.051Z,99804.75
2022-12-24T08:47:31.844Z,99807.84
2022-12-24T08:49:58.619Z,99804.16
2022-12-24T08:52:25.425Z,99811.50
2022-12-24T08:54:52.253Z,99799.31
2022-12-24T08:57:20.321Z,99807.50
2022-12-24T08:59:47.269Z,99811.91
2022-12-24T09:02:14.560Z,99806.38
2022-12-24T09:04:41.770Z,99806.38
2022-12-24T09:07:09.843Z,99798.03
2022-12-24T09:09:38.320Z,99791.69
2022-12-24T09:12:09.006Z,99794.22
2022-12-24T09:14:35.967Z,99796.91
2022-12-24T09:17:02.852Z,99789.69
2022-12-24T09:19:29.677Z,99794.91
2022-12-24T09:21:56.519Z,99800.09
2022-12-24T09:24:23.727Z,99792.78
2022-12-24T09:26:57.292Z,99802.34
2022-12-24T09:29:24.443Z,99804.19
2022-12-24T09:31:51.742Z,99806.41
2022-12-24T09:34:18.619Z,99811.47
2022-12-24T09:36:46.700Z,99802.13
2022-12-24T09:39:14.589Z,99804.47
2022-12-24T09:42:05.701Z,99813.25
2022-12-24T09:44:43.738Z,99817.59
2022-12-24T09:47:22.696Z,99815.31
2022-12-24T09:49:54.057Z,99820.53
2022-12-24T09:52:34.558Z,99823.03
2022-12-24T09:55:34.149Z,99832.50
2022-12-24T09:58:05.342Z,99827.50
2022-12-24T10:00:38.263Z,99829.72
2022-12-24T10:03:18.643Z,99826.03
2022-12-24T10:06:11.925Z,99835.78
2022-12-24T10:08:44.571Z,99835.00
2022-12-24T10:11:27.270Z,99838.69
2022-12-24T10:14:18.833Z,99842.06
2022-12-24T10:16:49.714Z,99847.41
2022-12-24T10:19:37.821Z,99855.31
2022-12-24T10:22:52.660Z,99854.88
2022-12-24T10:25:32.288Z,99852.75
2022-12-24T10:28:02.817Z,99863.84
2022-12-24T10:30:30.107Z,99865.38
2022-12-24T10:32:56.915Z,99865.06
2022-12-24T10:35:30.068Z,99872.13
2022-12-24T10:37:58.309Z,99862.06
2022-12-24T10:40:32.720Z,99866.97
2022-12-24T10:42:59.787Z,99872.88
2022-12-24T10:45:38.181Z,99861.53
2022-12-24T10:48:12.855Z,99874.63
2022-12-24T10:51:15.877Z,99872.63
2022-12-24T10:53:46.268Z,99867.94
2022-12-24T10:56:17.952Z,99863.97
2022-12-24T10:58:57.197Z,99860.81
2022-12-24T11:01:45.656Z,99845.91
2022-12-24T11:04:19.295Z,99835.53
2022-12-24T11:07:03.960Z,99842.28
2022-12-24T11:09:43.523Z,99836.25
2022-12-24T11:12:24.015Z,99833.94
2022-12-24T11:15:03.306Z,99828.75
2022-12-24T11:17:30.610Z,99828.47
2022-12-24T11:19:58.577Z,99828.69
2022-12-24T11:22:29.893Z,99830.34
2022-12-24T11:25:21.255Z,99836.25
2022-12-24T11:27:51.746Z,99835.75
2022-12-24T11:30:31.589Z,99834.75
2022-12-24T11:33:01.419Z,99831.56
2022-12-24T11:35:31.810Z,99835.47
2022-12-24T11:38:01.558Z,99836.16
2022-12-24T11:40:42.581Z,99825.06
2022-12-24T11:43:18.492Z,99833.16
2022-12-24T11:45:57.155Z,99830.16
2022-12-24T11:48:34.894Z,99828.97
2022-12-24T11:51:04.910Z,99821.44
2022-12-24T11:54:23.254Z,99820.44
2022-12-24T11:56:55.386Z,99821.81
2022-12-24T11:59:38.658Z,99821.81
2022-12-24T12:02:33.731Z,99822.50
2022-12-24T12:05:12.272Z,99815.09
2022-12-24T12:07:39.651Z,99824.72
2022-12-24T12:10:18.392Z,99827.06
2022-12-24T12:12:56.991Z,99834.16
2022-12-24T12:15:33.016Z,99826.59
2022-12-24T12:18:18.115Z,99827.09
2022-12-24T12:21:04.215Z,99822.06
2022-12-24T12:23:36.616Z,99829.66
2022-12-24T12:26:24.713Z,99823.75
2022-12-24T12:29:13.112Z,99820.22
2022-12-24T12:31:46.031Z,99817.53
2022-12-24T12:34:22.214Z,99822.09
2022-12-24T12:36:54.691Z,99832.03
2022-12-24T12:39:21.484Z,99832.69
2022-12-24T12:42:16.317Z,99828.66
2022-12-24T12:45:00.016Z,99834.72
2022-12-24T12:48:03.925Z,99829.53
2022-12-24T12:51:16.086Z,99841.47
2022-12-24T12:54:00.839Z,99842.66
2022-12-24T12:56:36.998Z,99837.44
2022-12-24T12:59:32.169Z,99843.50
2022-12-24T13:02:18.015Z,99838.78
2022-12-24T13:05:36.627Z,99837.28
2022-12-24T13:08:47.705Z,99839.97
2022-12-24T13:11:42.445Z,99836.59
2022-12-24T13:14:33.908Z,99836.91
2022-12-24T13:17:40.956Z,99829.00
2022-12-24T13:20:32.268Z,99828.50
2022-12-24T13:23:03.526Z,99832.22
2022-12-24T13:25:39.447Z,99823.31
2022-12-24T13:28:24.540Z,99818.06
2022-12-24T13:31:02.118Z,99812.34
2022-12-24T13:33:38.397Z,99823.31
2022-12-24T13:36:17.188Z,99817.41
2022-12-24T13:39:04.209Z,99818.22
2022-12-24T13:41:39.988Z,99799.22
2022-12-24T13:44:07.803Z,99793.66
2022-12-24T13:46:56.757Z,99796.38
2022-12-24T13:49:38.699Z,99792.47
2022-12-24T13:52:21.982Z,99784.41
2022-12-24T13:54:54.754Z,99783.25
2022-12-24T13:57:36.055Z,99779.53
2022-12-24T14:00:23.072Z,99776.81
2022-12-24T14:03:19.824Z,99782.06
2022-12-24T14:05:56.018Z,99778.34
2022-12-24T14:08:27.976Z,99770.44
2022-12-24T14:11:06.053Z,99763.03
2022-12-24T14:13:38.816Z,99765.38
2022-12-24T14:16:24.425Z,99774.63
2022-12-24T14:19:04.009Z,99762.19
2022-12-24T14:21:40.294Z,99766.22
2022-12-24T14:24:23.280Z,99758.97
2022-12-24T14:27:20.093Z,99756.97
2022-12-24T14:30:05.334Z,99749.91
2022-12-24T14:32:40.140Z,99753.59
2022-12-24T14:35:22.350Z,99749.53
2022-12-24T14:37:56.890Z,99746.84
2022-12-24T14:40:28.841Z,99741.63
2022-12-24T14:43:06.933Z,99742.50
2022-12-24T14:45:49.177Z,99736.91
2022-12-24T14:48:27.151Z,99740.47
2022-12-24T14:51:05.333Z,99738.09
2022-12-24T14:54:06.108Z,99734.41
2022-12-24T14:56:33.367Z,99735.25
2022-12-24T14:59:05.008Z,99732.03
2022-12-24T15:01:36.348Z,99732.72
2022-12-24T15:04:21.212Z,99728.34
2022-12-24T15:06:53.322Z,99735.56
2022-12-24T15:09:22.042Z,99729.34
2022-12-24T15:11:52.992Z,99730.72
2022-12-24T15:14:22.317Z,99723.28
2022-12-24T15:16:56.851Z,99718.25
2022-12-24T15:19:33.880Z,99729.38
2022-12-24T15:22:03.427Z,99727.69
2022-12-24T15:24:37.076Z,99713.53
2022-12-24T15:27:16.666Z,99720.97
2022-12-24T15:29:47.249Z,99713.88
2022-12-24T15:32:17.263Z,99708.69
2022-12-24T15:34:47.827Z,99714.25
2022-12-24T15:37:31.877Z,99707.50
2022-12-24T15:40:22.618Z,99707.00
2022-12-24T15:42:50.011Z,99700.75
2022-12-24T15:45:30.764Z,99699.44
2022-12-24T15:48:02.137Z,99699.78
2022-12-24T15:50:34.431Z,99692.72
2022-12-24T15:53:31.021Z,99684.66
2022-12-24T15:56:11.681Z,99682.78
2022-12-24T15:58:44.989Z,99688.34
2022-12-24T16:01:17.766Z,99687.66
2022-12-24T16:03:50.830Z,99681.63
2022-12-24T16:06:18.825Z,99681.94
2022-12-24T16:08:46.821Z,99667.50
2022-12-24T16:11:34.771Z,99675.06
2022-12-24T16:14:12.461Z,99669.84
2022-12-24T16:16:42.972Z,99683.66
2022-12-24T16:19:40.471Z,99677.59
2022-12-24T16:22:26.320Z,99675.06
2022-12-24T16:24:55.717Z,99669.84
2022-12-24T16:27:22.772Z,99678.25
2022-12-24T16:29:50.474Z,99676.59
2022-12-24T16:32:35.061Z,99676.06
2022-12-24T16:35:05.405Z,99682.28
2022-12-24T16:37:32.328Z,99695.91
2022-12-24T16:39:59.257Z,99688.69
2022-12-24T16:42:44.958Z,99686.84
2022-12-24T16:45:11.905Z,99687.66
2022-12-24T16:47:43.167Z,99673.88
2022-12-24T16:50:17.216Z,99673.22
2022-12-24T16:52:44.212Z,99691.69
2022-12-24T16:55:14.434Z,99679.28
2022-12-24T16:57:43.382Z,99678.25
2022-12-24T17:00:20.893Z,99666.81
2022-12-24T17:02:49.803Z,99655.56
2022-12-24T17:05:17.117Z,99658.06
2022-12-24T17:07:44.479Z,99661.44
2022-12-24T17:10:14.933Z,99649.81
2022-12-24T17:12:42.966Z,99647.81
2022-12-24T17:15:10.706Z,99640.59
2022-12-24T17:17:37.973Z,99635.00
2022-12-24T17:20:05.907Z,99629.47
2022-12-24T17:22:32.755Z,99642.09
2022-12-24T17:24:59.630Z,99645.63
2022-12-24T17:27:26.432Z,99651.66
2022-12-24T17:29:53.366Z,99641.75
2022-12-24T17:32:20.464Z,99648.97
2022-12-24T17:34:47.282Z,99637.22
2022-12-24T17:37:14.113Z,99639.25
2022-12-24T17:39:41.253Z,99634.84
2022-12-24T17:42:08.218Z,99627.63
2022-12-24T17:44:35.411Z,99624.75
2022-12-24T17:47:05.412Z,99616.69
2022-12-24T17:49:32.530Z,99602.22
2022-12-24T17:51:59.597Z,99599.22
2022-12-24T17:54:26.597Z,99600.03
2022-12-24T17:56:53.391Z,99596.16
2022-12-24T17:59:20.216Z,99590.59
2022-12-24T18:01:47.110Z,99585.06
2022-12-24T18:04:14.451Z,99580.34
2022-12-24T18:06:47.236Z,99580.16
2022-12-24T18:09:15.961Z,99585.03
2022-12-24T18:11:42.839Z,99574.75
2022-12-24T18:14:14.184Z,99556.56
2022-12-24T18:16:42.637Z,99542.94
2022-12-24T18:19:12.190Z,99547.50
2022-12-24T18:21:40.548Z,99539.22
2022-12-24T18:24:09.337Z,99540.06
2022-12-24T18:26:36.770Z,99531.84
2022-12-24T18:29:08.919Z,99523.06
2022-12-24T18:31:36.783Z,99535.53
2022-12-24T18:34:07.569Z,99533.66
2022-12-24T18:36:35.045Z,99528.09
2022-12-24T18:39:02.462Z,99540.56
2022-12-24T18:41:31.049Z,99527.78
2022-12-24T18:43:59.422Z,99528.25
2022-12-24T18:46:30.433Z,99529.09
2022-12-24T18:48:59.786Z,99522.69
2022-12-24T18:51:36.341Z,99515.47
2022-12-24T18:54:04.977Z,99517.97
2022-12-24T18:56:32.094Z,99510.19
2022-12-24T18:59:02.254Z,99499.25
2022-12-24T19:01:34.815Z,99488.47
2022-12-24T19:04:02.965Z,99488.63
2022-12-24T19:06:30.362Z,99486.59
2022-12-24T19:08:59.071Z,99499.69
2022-12-24T19:11:30.775Z,99488.56
2022-12-24T19:13:58.494Z,99497.31
2022-12-24T19:16:27.273Z,99492.41
2022-12-24T19:18:54.755Z,99499.94
2022-12-24T19:21:21.994Z,99500.25
2022-12-24T19:23:49.315Z,99508.16
2022-12-24T19:26:18.659Z,99514.69
2022-12-24T19:28:46.354Z,99514.31
2022-12-24T19:31:20.691Z,99512.97
2022-12-24T19:33:51.230Z,99521.53
2022-12-24T19:36:22.856Z,99518.66
2022-12-24T19:38:49.993Z,99511.53
2022-12-24T19:41:19.811Z,99512.84
2022-12-24T19:43:50.617Z,99511.66
2022-12-24T19:46:21.551Z,99514.84
2022-12-24T19:48:55.261Z,99511.59
2022-12-24T19:51:23.950Z,99521.16
2022-12-24T19:53:52.424Z,99521.47
2022-12-24T19:56:21.832Z,99515.72
2022-12-24T19:58:49.405Z,99528.16
2022-12-24T20:01:22.547Z,99514.03
2022-12-24T20:03:51.291Z,99511.50
2022-12-24T20:06:21.484Z,99515.53
2022-12-24T20:08:49.071Z,99507.25
2022-12-24T20:11:19.710Z,99508.47
2022-12-24T20:13:46.670Z,99506.41
2022-12-24T20:16:21.111Z,99508.09
2022-12-24T20:18:57.314Z,99495.81
2022-12-24T20:21:25.277Z,99510.59
2022-12-24T20:23:52.460Z,99506.06
2022-12-24T20:26:23.538Z,99510.25
2022-12-24T20:28:50.506Z,99515.28
2022-12-24T20:31:25.587Z,99510.53
2022-12-24T20:33:53.458Z,99500.59
2022-12-24T20:36:22.761Z,99524.13
2022-12-24T20:38:50.499Z,99534.09
2022-12-24T20:41:20.394Z,99526.66
2022-12-24T20:43:49.010Z,99514.00
2022-12-24T20:46:19.222Z,99499.31
2022-12-24T20:48:46.764Z,99506.75
2022-12-24T20:51:23.683Z,99515.69
2022-12-24T20:53:54.111Z,99523.59
2022-12-24T20:56:25.058Z,99530.88
2022-12-24T20:58:52.421Z,99536.06
2022-12-24T21:01:26.648Z,99535.41
2022-12-24T21:03:57.302Z,99542.84
2022-12-24T21:06:25.253Z,99549.44
2022-12-24T21:08:53.792Z,99540.53
2022-12-24T21:11:48.265Z,99536.78
2022-12-24T21:14:19.484Z,99537.81
2022-12-24T21:16:46.822Z,99529.72
2022-12-24T21:19:23.733Z,99544.22
2022-12-24T21:21:51.353Z,99546.75
2022-12-24T21:24:18.159Z,99556.72
2022-12-24T21:26:45.680Z,99550.28
2022-12-24T21:29:12.665Z,99548.41
2022-12-24T21:31:39.548Z,99546.75
2022-12-24T21:34:07.163Z,99548.13
2022-12-24T21:36:34.023Z,99549.63
2022-12-24T21:39:01.084Z,99552.97
2022-12-24T21:41:28.210Z,99547.94
2022-12-24T21:43:55.248Z,99542.34
2022-12-24T21:46:25.426Z,99550.44
2022-12-24T21:49:12.851Z,99554.34
2022-12-24T21:51:41.515Z,99549.97
2022-12-24T21:54:23.304Z,99555.19
2022-12-24T21:57:10.620Z,99548.47
2022-12-24T21:59:37.432Z,99532.47
2022-12-24T22:02:04.510Z,99527.25
2022-12-24T22:04:33.409Z,99532.56
2022-12-24T22:07:18.705Z,99522.50
2022-12-24T22:10:03.980Z,99520.72
2022-12-24T22:12:33.484Z,99521.59
2022-12-24T22:15:00.418Z,99527.22
2022-12-24T22:17:28.604Z,99535.47
2022-12-24T22:19:55.760Z,99547.47
2022-12-24T22:22:23.172Z,99557.66
2022-12-24T22:24:50.129Z,99563.22
2022-12-24T22:27:17.123Z,99559.03
2022-12-24T22:29:44.476Z,99564.41
2022-12-24T22:32:11.457Z,99558.03
2022-12-24T22:34:38.384Z,99567.13
2022-12-24T22:37:05.223Z,99569.16
2022-12-24T22:39:32.488Z,99578.28
2022-12-24T22:41:59.466Z,99579.44
2022-12-24T22:44:26.417Z,99584.19
2022-12-24T22:46:53.721Z,99588.56
2022-12-24T22:49:20.644Z,99579.81
2022-12-24T22:51:47.511Z,99570.22
2022-12-24T22:54:14.576Z,99578.78
2022-12-24T22:56:41.934Z,99561.63
2022-12-24T22:59:12.824Z,99573.56
2022-12-24T23:01:43.785Z,99568.00
2022-12-24T23:04:11.953Z,99569.22
2022-12-24T23:06:39.646Z,99565.00
2022-12-24T23:09:10.136Z,99569.38
2022-12-24T23:11:37.058Z,99567.69
2022-12-24T23:14:22.369Z,99557.28
2022-12-24T23:16:49.089Z,99567.75
2022-12-24T23:19:16.195Z,99570.94
2022-12-24T23:21:43.427Z,99569.44
2022-12-24T23:24:11.445Z,99567.75
2022-12-24T23:26:38.831Z,99570.44
2022-12-24T23:29:05.775Z,99568.44
2022-12-24T23:31:34.952Z,99557.34
2022-12-24T23:34:02.381Z,99559.38
2022-12-24T23:36:29.664Z,99555.00
2022-12-24T23:38:57.794Z,99555.69
2022-12-24T23:41:25.061Z,99560.25
2022-12-24T23:43:51.977Z,99553.72
2022-12-24T23:46:20.584Z,99545.97
2022-12-24T23:48:47.830Z,99548.66
2022-12-24T23:51:23.649Z,99537.94
2022-12-24T23:53:53.396Z,99535.56
2022-12-24T23:56:22.074Z,99537.59
2022-12-24T23:58:49.283Z,99535.06
